<?xml version='1.0' encoding='UTF-8'?><gpx version="1.1" creator="JPX - https://github.com/jenetics/jpx" xmlns="http://www.topografix.com/GPX/1/1"><trk><trkseg><trkpt lat="45.924540313023904" lon="11.560224309941471"><ele>1463.0</ele><time>2026-04-21T07:51:33.999Z</time></trkpt><trkpt lat="45.924538324391726" lon="11.560315777835132"><ele>1463.0</ele><time>2026-04-21T07:52:40Z</time></trkpt><trkpt lat="45.92452170882289" lon="11.560228075456962"><ele>1463.0</ele><time>2026-04-21T07:54:19.999Z</time></trkpt><trkpt lat="45.92452952177921" lon="11.560135514452632"><ele>1463.0</ele><time>2026-04-21T07:54:24.999Z</time></trkpt><trkpt lat="45.924521425022576" lon="11.56003516932974"><ele>1463.0</ele><time>2026-04-21T07:54:28.998Z</time></trkpt><trkpt lat="45.92451899740068" lon="11.559928483302116"><ele>1463.0</ele><time>2026-04-21T07:54:33.998Z</time></trkpt><trkpt lat="45.92451993733768" lon="11.55983068963081"><ele>1463.0</ele><time>2026-04-21T07:54:37.998Z</time></trkpt><trkpt lat="45.924534191373" lon="11.559730753175476"><ele>1463.0</ele><time>2026-04-21T07:54:42.998Z</time></trkpt><trkpt lat="45.924562284247905" lon="11.559646040927502"><ele>1463.0</ele><time>2026-04-21T07:54:47Z</time></trkpt><trkpt lat="45.92460587679889" lon="11.559565780469548"><ele>1463.0</ele><time>2026-04-21T07:54:52Z</time></trkpt><trkpt lat="45.924663747482306" lon="11.559509821503697"><ele>1463.0</ele><time>2026-04-21T07:54:57Z</time></trkpt><trkpt lat="45.92472803250656" lon="11.559471621599402"><ele>1463.0</ele><time>2026-04-21T07:55:04Z</time></trkpt><trkpt lat="45.924772636325685" lon="11.559393115483813"><ele>1463.0</ele><time>2026-04-21T07:55:12Z</time></trkpt><trkpt lat="45.92477456703392" lon="11.55929961304875"><ele>1463.0</ele><time>2026-04-21T07:55:15Z</time></trkpt><trkpt lat="45.9247614271145" lon="11.559201048407274"><ele>1464.857142857143</ele><time>2026-04-21T07:55:18Z</time></trkpt><trkpt lat="45.92470751389983" lon="11.559153824293755"><ele>1466.7142857142858</ele><time>2026-04-21T07:55:26Z</time></trkpt><trkpt lat="45.92464589714543" lon="11.559126100043844"><ele>1468.5714285714284</ele><time>2026-04-21T07:55:34Z</time></trkpt><trkpt lat="45.92465933321357" lon="11.559037085339378"><ele>1470.4285714285716</ele><time>2026-04-21T07:55:48Z</time></trkpt><trkpt lat="45.92459854114427" lon="11.558990058211576"><ele>1472.2857142857142</ele><time>2026-04-21T07:56:02Z</time></trkpt><trkpt lat="45.924606444778064" lon="11.558895035680207"><ele>1474.142857142857</ele><time>2026-04-21T07:56:12.999Z</time></trkpt><trkpt lat="45.924594847742895" lon="11.558800600921609"><ele>1476.0</ele><time>2026-04-21T07:56:21.999Z</time></trkpt><trkpt lat="45.924622707790896" lon="11.558713082629414"><ele>1477.7142857142858</ele><time>2026-04-21T07:56:37.999Z</time></trkpt><trkpt lat="45.92465330414514" lon="11.558625023308002"><ele>1479.4285714285713</ele><time>2026-04-21T07:56:47.999Z</time></trkpt><trkpt lat="45.92463944760739" lon="11.558525740450886"><ele>1481.1428571428573</ele><time>2026-04-21T07:56:56Z</time></trkpt><trkpt lat="45.92464312985103" lon="11.558432664575642"><ele>1482.857142857143</ele><time>2026-04-21T07:57:05Z</time></trkpt><trkpt lat="45.92467164186422" lon="11.558343058148266"><ele>1484.5714285714287</ele><time>2026-04-21T07:57:14Z</time></trkpt><trkpt lat="45.924696488571925" lon="11.558257988174933"><ele>1486.2857142857144</ele><time>2026-04-21T07:57:21.999Z</time></trkpt><trkpt lat="45.92471160176657" lon="11.55816614693769"><ele>1488.0</ele><time>2026-04-21T07:57:30.999Z</time></trkpt><trkpt lat="45.92472470894569" lon="11.558077243921476"><ele>1488.0000000000002</ele><time>2026-04-21T07:57:36.999Z</time></trkpt><trkpt lat="45.924740200010795" lon="11.557981140094743"><ele>1488.0</ele><time>2026-04-21T07:57:43.999Z</time></trkpt><trkpt lat="45.924754037834184" lon="11.557892443917765"><ele>1488.0</ele><time>2026-04-21T07:57:51.999Z</time></trkpt><trkpt lat="45.92473713655029" lon="11.557761481462146"><ele>1488.0</ele><time>2026-04-21T07:58:06.999Z</time></trkpt><trkpt lat="45.9246970481428" lon="11.557668726571514"><ele>1488.0</ele><time>2026-04-21T07:58:12.999Z</time></trkpt><trkpt lat="45.92466981015165" lon="11.557570979353299"><ele>1488.0000000000002</ele><time>2026-04-21T07:59:13Z</time></trkpt><trkpt lat="45.92460067753429" lon="11.557551952483166"><ele>1488.0</ele><time>2026-04-21T08:00:00Z</time></trkpt><trkpt lat="45.92459458951322" lon="11.557647591809395"><ele>1489.8333333333333</ele><time>2026-04-21T08:00:11Z</time></trkpt><trkpt lat="45.924619883776145" lon="11.557737548873254"><ele>1491.6666666666667</ele><time>2026-04-21T08:00:19Z</time></trkpt><trkpt lat="45.92474518782015" lon="11.557823617661787"><ele>1493.5</ele><time>2026-04-21T08:01:15Z</time></trkpt><trkpt lat="45.92469244967808" lon="11.55776407888065"><ele>1495.3333333333335</ele><time>2026-04-21T08:01:28Z</time></trkpt><trkpt lat="45.924708090283765" lon="11.557665913861712"><ele>1497.1666666666667</ele><time>2026-04-21T08:01:36Z</time></trkpt><trkpt lat="45.92479208378339" lon="11.557662953039308"><ele>1499.0</ele><time>2026-04-21T08:04:19Z</time></trkpt><trkpt lat="45.9248566442894" lon="11.557646548934597"><ele>1499.0</ele><time>2026-04-21T08:04:42.999Z</time></trkpt><trkpt lat="45.92480136733548" lon="11.55770486166475"><ele>1499.0</ele><time>2026-04-21T08:04:58.999Z</time></trkpt><trkpt lat="45.92489047126943" lon="11.557641949425362"><ele>1499.0</ele><time>2026-04-21T08:05:38Z</time></trkpt><trkpt lat="45.9248684868169" lon="11.557551650880281"><ele>1499.0</ele><time>2026-04-21T08:05:51Z</time></trkpt><trkpt lat="45.924894242294585" lon="11.557409660143646"><ele>1499.0</ele><time>2026-04-21T08:06:30.999Z</time></trkpt><trkpt lat="45.924828466805685" lon="11.557398838085977"><ele>1499.0</ele><time>2026-04-21T08:07:09.999Z</time></trkpt><trkpt lat="45.924907796142236" lon="11.557413019378677"><ele>1499.0</ele><time>2026-04-21T08:07:32Z</time></trkpt><trkpt lat="45.92484386818726" lon="11.557418685050179"><ele>1499.0</ele><time>2026-04-21T08:07:42Z</time></trkpt><trkpt lat="45.924777651347554" lon="11.557428031363731"><ele>1499.0</ele><time>2026-04-21T08:07:47Z</time></trkpt><trkpt lat="45.92471454142948" lon="11.557459593122989"><ele>1499.0</ele><time>2026-04-21T08:07:54Z</time></trkpt><trkpt lat="45.92473249289993" lon="11.55755705479263"><ele>1499.0</ele><time>2026-04-21T08:08:42.999Z</time></trkpt><trkpt lat="45.924698986321935" lon="11.557479877924221"><ele>1499.0</ele><time>2026-04-21T08:09:15.999Z</time></trkpt><trkpt lat="45.92471335882117" lon="11.55738327380684"><ele>1499.0</ele><time>2026-04-21T08:09:30.001Z</time></trkpt><trkpt lat="45.924685436309574" lon="11.557289206881492"><ele>1499.0</ele><time>2026-04-21T08:09:58Z</time></trkpt><trkpt lat="45.924740342914525" lon="11.55733658336785"><ele>1499.0</ele><time>2026-04-21T08:10:23.999Z</time></trkpt><trkpt lat="45.924673088684536" lon="11.557331770103533"><ele>1499.0</ele><time>2026-04-21T08:11:03.999Z</time></trkpt><trkpt lat="45.92458998100897" lon="11.557344959258446"><ele>1499.0</ele><time>2026-04-21T08:11:17.999Z</time></trkpt><trkpt lat="45.92453972254915" lon="11.557404022688878"><ele>1499.0</ele><time>2026-04-21T08:11:29.999Z</time></trkpt><trkpt lat="45.92454644727008" lon="11.557600745538162"><ele>1499.0</ele><time>2026-04-21T08:12:00Z</time></trkpt><trkpt lat="45.924583582803436" lon="11.557526165386504"><ele>1499.0</ele><time>2026-04-21T08:12:27.999Z</time></trkpt><trkpt lat="45.92458724574478" lon="11.55742334013033"><ele>1499.0</ele><time>2026-04-21T08:13:27.999Z</time></trkpt><trkpt lat="45.92452418268164" lon="11.557354832655527"><ele>1499.0</ele><time>2026-04-21T08:14:20.001Z</time></trkpt><trkpt lat="45.92448136263763" lon="11.557425161580765"><ele>1499.0</ele><time>2026-04-21T08:14:51Z</time></trkpt><trkpt lat="45.9245390600993" lon="11.557493263906153"><ele>1499.0</ele><time>2026-04-21T08:15:05Z</time></trkpt><trkpt lat="45.924470821730765" lon="11.557482788238508"><ele>1499.0</ele><time>2026-04-21T08:15:15Z</time></trkpt><trkpt lat="45.92446814748733" lon="11.557606928153499"><ele>1499.0</ele><time>2026-04-21T08:15:47.001Z</time></trkpt><trkpt lat="45.92447984794835" lon="11.557702619332604"><ele>1499.0</ele><time>2026-04-21T08:16:05Z</time></trkpt><trkpt lat="45.924520554513705" lon="11.557772384345466"><ele>1499.0</ele><time>2026-04-21T08:16:14Z</time></trkpt><trkpt lat="45.924596088051516" lon="11.557765325152127"><ele>1499.0</ele><time>2026-04-21T08:16:26Z</time></trkpt><trkpt lat="45.9246515684346" lon="11.557710595500847"><ele>1499.0</ele><time>2026-04-21T08:16:43Z</time></trkpt><trkpt lat="45.9246608922089" lon="11.55761441882186"><ele>1499.0</ele><time>2026-04-21T08:16:50Z</time></trkpt><trkpt lat="45.92468362387211" lon="11.557524570904441"><ele>1499.0</ele><time>2026-04-21T08:17:01Z</time></trkpt><trkpt lat="45.9246963333954" lon="11.557434097415344"><ele>1499.0</ele><time>2026-04-21T08:17:15Z</time></trkpt><trkpt lat="45.924705522035346" lon="11.557334785612564"><ele>1499.0</ele><time>2026-04-21T08:17:27.999Z</time></trkpt><trkpt lat="45.92467411530698" lon="11.557255531894441"><ele>1499.0</ele><time>2026-04-21T08:17:37.999Z</time></trkpt><trkpt lat="45.92462792437254" lon="11.557159030470288"><ele>1499.0</ele><time>2026-04-21T08:18:20Z</time></trkpt><trkpt lat="45.92459913718909" lon="11.557071889566824"><ele>1499.0</ele><time>2026-04-21T08:18:35Z</time></trkpt><trkpt lat="45.92460322855023" lon="11.556955143586876"><ele>1499.0</ele><time>2026-04-21T08:18:58Z</time></trkpt><trkpt lat="45.92453842158964" lon="11.556939731224514"><ele>1499.0</ele><time>2026-04-21T08:19:16Z</time></trkpt><trkpt lat="45.92456396482101" lon="11.55683732870212"><ele>1499.0</ele><time>2026-04-21T08:19:32Z</time></trkpt><trkpt lat="45.92450701446825" lon="11.556780515489868"><ele>1500.3333333333335</ele><time>2026-04-21T08:20:34Z</time></trkpt><trkpt lat="45.92444990271922" lon="11.556821411449633"><ele>1501.6666666666667</ele><time>2026-04-21T08:20:47Z</time></trkpt><trkpt lat="45.92449163278237" lon="11.556922253312333"><ele>1503.0</ele><time>2026-04-21T08:21:08Z</time></trkpt><trkpt lat="45.92446545469796" lon="11.556820909100656"><ele>1504.3333333333333</ele><time>2026-04-21T08:21:26.999Z</time></trkpt><trkpt lat="45.924471398762385" lon="11.556711916046758"><ele>1505.6666666666665</ele><time>2026-04-21T08:22:37Z</time></trkpt><trkpt lat="45.924463327325526" lon="11.55658429550493"><ele>1507.0</ele><time>2026-04-21T08:26:59.999Z</time></trkpt><trkpt lat="45.924405999623694" lon="11.556638668820979"><ele>1507.0</ele><time>2026-04-21T08:27:35.997Z</time></trkpt><trkpt lat="45.92436004590396" lon="11.556569311151787"><ele>1507.0</ele><time>2026-04-21T08:27:43.997Z</time></trkpt><trkpt lat="45.92440089194696" lon="11.556750162406322"><ele>1507.0</ele><time>2026-04-21T08:28:29.998Z</time></trkpt><trkpt lat="45.92435020588859" lon="11.556673452273213"><ele>1507.0</ele><time>2026-04-21T08:28:58.998Z</time></trkpt><trkpt lat="45.9244549737927" lon="11.556625174079995"><ele>1507.0</ele><time>2026-04-21T08:30:02.997Z</time></trkpt><trkpt lat="45.92438852516806" lon="11.55661468711755"><ele>1507.0</ele><time>2026-04-21T08:34:40.998Z</time></trkpt><trkpt lat="45.924383549440535" lon="11.556521058014898"><ele>1507.0</ele><time>2026-04-21T08:35:35.997Z</time></trkpt><trkpt lat="45.92450316963769" lon="11.556528318729415"><ele>1507.0</ele><time>2026-04-21T08:36:50.998Z</time></trkpt><trkpt lat="45.92446535472851" lon="11.55660352811274"><ele>1507.0</ele><time>2026-04-21T08:37:05.998Z</time></trkpt><trkpt lat="45.92440410207629" lon="11.556572819876397"><ele>1507.0</ele><time>2026-04-21T08:37:23.998Z</time></trkpt><trkpt lat="45.92433148682155" lon="11.556530950170703"><ele>1507.0</ele><time>2026-04-21T08:38:54.999Z</time></trkpt><trkpt lat="45.92439834872599" lon="11.556551811829292"><ele>1507.0</ele><time>2026-04-21T08:39:51.998Z</time></trkpt><trkpt lat="45.92448016119627" lon="11.556606351124014"><ele>1507.0</ele><time>2026-04-21T08:42:02.998Z</time></trkpt><trkpt lat="45.92441218209939" lon="11.556576582334005"><ele>1507.0</ele><time>2026-04-21T08:44:12.997Z</time></trkpt><trkpt lat="45.92434998142712" lon="11.556556646110629"><ele>1507.0</ele><time>2026-04-21T08:48:42.996Z</time></trkpt><trkpt lat="45.92427532225624" lon="11.556566875958913"><ele>1507.0</ele><time>2026-04-21T08:50:29.997Z</time></trkpt><trkpt lat="45.92421908493259" lon="11.556644445224586"><ele>1507.0</ele><time>2026-04-21T08:50:54.997Z</time></trkpt><trkpt lat="45.92417379487678" lon="11.55672752942984"><ele>1507.0</ele><time>2026-04-21T08:51:55.997Z</time></trkpt><trkpt lat="45.92422151493311" lon="11.556793337406297"><ele>1507.0</ele><time>2026-04-21T08:52:13.997Z</time></trkpt><trkpt lat="45.924284800557096" lon="11.556834337336655"><ele>1507.0</ele><time>2026-04-21T08:53:10.997Z</time></trkpt><trkpt lat="45.924352348128764" lon="11.556822480037589"><ele>1507.0</ele><time>2026-04-21T08:53:33.997Z</time></trkpt><trkpt lat="45.924367867827556" lon="11.556702469030085"><ele>1507.0</ele><time>2026-04-21T08:56:07.996Z</time></trkpt><trkpt lat="45.924258574159964" lon="11.556620199268819"><ele>1507.0</ele><time>2026-04-21T08:57:06.996Z</time></trkpt><trkpt lat="45.92432932369508" lon="11.556608966739462"><ele>1507.0</ele><time>2026-04-21T08:58:15.997Z</time></trkpt><trkpt lat="45.92437960012181" lon="11.55654669827816"><ele>1507.0</ele><time>2026-04-21T08:59:31.996Z</time></trkpt><trkpt lat="45.924444328190795" lon="11.556474899525876"><ele>1507.0</ele><time>2026-04-21T09:04:10.995Z</time></trkpt><trkpt lat="45.92447779118658" lon="11.556552365035868"><ele>1507.0</ele><time>2026-04-21T09:04:41.997Z</time></trkpt><trkpt lat="45.924448865789714" lon="11.556453952752298"><ele>1507.0</ele><time>2026-04-21T09:08:26.991Z</time></trkpt><trkpt lat="45.9243343427206" lon="11.556403143466948"><ele>1507.0</ele><time>2026-04-21T09:09:19.991Z</time></trkpt><trkpt lat="45.92439822090782" lon="11.556404237946973"><ele>1507.0</ele><time>2026-04-21T09:09:46.991Z</time></trkpt><trkpt lat="45.92443795121138" lon="11.556330999532543"><ele>1507.0</ele><time>2026-04-21T09:10:23.99Z</time></trkpt><trkpt lat="45.924510294860426" lon="11.556296425583902"><ele>1507.0</ele><time>2026-04-21T09:10:33.991Z</time></trkpt><trkpt lat="45.92452379253712" lon="11.556385896632909"><ele>1507.0</ele><time>2026-04-21T09:10:54.991Z</time></trkpt><trkpt lat="45.92448755680634" lon="11.556479546339697"><ele>1507.0</ele><time>2026-04-21T09:11:05.991Z</time></trkpt><trkpt lat="45.924464972855596" lon="11.556570875446008"><ele>1507.0</ele><time>2026-04-21T09:11:10.991Z</time></trkpt><trkpt lat="45.92441271502959" lon="11.556644826057223"><ele>1507.0</ele><time>2026-04-21T09:12:18.99Z</time></trkpt><trkpt lat="45.924501944557385" lon="11.5565952873854"><ele>1507.0</ele><time>2026-04-21T09:12:59.991Z</time></trkpt><trkpt lat="45.92442473619682" lon="11.556535361640645"><ele>1507.0</ele><time>2026-04-21T09:14:24.99Z</time></trkpt><trkpt lat="45.9244357874087" lon="11.556638373211946"><ele>1507.0</ele><time>2026-04-21T09:14:37.99Z</time></trkpt><trkpt lat="45.92445765763756" lon="11.556553382612709"><ele>1507.0</ele><time>2026-04-21T09:15:10.99Z</time></trkpt><trkpt lat="45.92441394788006" lon="11.556478433641278"><ele>1507.0</ele><time>2026-04-21T09:15:20.99Z</time></trkpt><trkpt lat="45.9243475704888" lon="11.556444925176061"><ele>1507.0</ele><time>2026-04-21T09:15:34.99Z</time></trkpt><trkpt lat="45.92440498895699" lon="11.556556598029294"><ele>1507.0</ele><time>2026-04-21T09:16:11.99Z</time></trkpt><trkpt lat="45.9243461400897" lon="11.556521412881454"><ele>1507.0</ele><time>2026-04-21T09:20:35.989Z</time></trkpt><trkpt lat="45.92437783266395" lon="11.556440009385549"><ele>1507.0</ele><time>2026-04-21T09:20:45.989Z</time></trkpt><trkpt lat="45.9243511061409" lon="11.55658009297628"><ele>1507.0</ele><time>2026-04-21T09:21:16.989Z</time></trkpt><trkpt lat="45.92443746426664" lon="11.556520741963169"><ele>1507.0</ele><time>2026-04-21T09:22:25.988Z</time></trkpt><trkpt lat="45.924469354914415" lon="11.55643861736115"><ele>1507.0</ele><time>2026-04-21T09:22:43.988Z</time></trkpt><trkpt lat="45.92449701901169" lon="11.55634291672853"><ele>1507.0</ele><time>2026-04-21T09:22:52.988Z</time></trkpt><trkpt lat="45.92452963265751" lon="11.55623820417558"><ele>1507.0</ele><time>2026-04-21T09:23:22.987Z</time></trkpt><trkpt lat="45.92447791996123" lon="11.556184230811088"><ele>1507.142857142857</ele><time>2026-04-21T09:24:16.987Z</time></trkpt><trkpt lat="45.92452842121356" lon="11.55611695206193"><ele>1507.2857142857142</ele><time>2026-04-21T09:24:23.987Z</time></trkpt><trkpt lat="45.92456736047182" lon="11.55603742576811"><ele>1507.4285714285713</ele><time>2026-04-21T09:24:51.986Z</time></trkpt><trkpt lat="45.92456358279331" lon="11.555933458952385"><ele>1507.5714285714284</ele><time>2026-04-21T09:25:13.986Z</time></trkpt><trkpt lat="45.9245956336489" lon="11.556020918554312"><ele>1507.7142857142858</ele><time>2026-04-21T09:26:13.986Z</time></trkpt><trkpt lat="45.9245994759247" lon="11.555922151399018"><ele>1507.8571428571427</ele><time>2026-04-21T09:27:37.986Z</time></trkpt><trkpt lat="45.92461234062901" lon="11.555813569698534"><ele>1508.0</ele><time>2026-04-21T09:29:33.986Z</time></trkpt><trkpt lat="45.92454497544305" lon="11.555830075994878"><ele>1507.9999999999998</ele><time>2026-04-21T09:30:01.986Z</time></trkpt><trkpt lat="45.92452303224664" lon="11.555738311686486"><ele>1508.0</ele><time>2026-04-21T09:30:11.986Z</time></trkpt><trkpt lat="45.92458715216624" lon="11.555750321052612"><ele>1508.0</ele><time>2026-04-21T09:30:26.986Z</time></trkpt><trkpt lat="45.924575491010856" lon="11.555847666272586"><ele>1508.0</ele><time>2026-04-21T09:30:36.986Z</time></trkpt><trkpt lat="45.92456367576566" lon="11.555755430269404"><ele>1508.0</ele><time>2026-04-21T09:31:03.985Z</time></trkpt><trkpt lat="45.92449313148463" lon="11.55573543224065"><ele>1507.9999999999998</ele><time>2026-04-21T09:31:28.985Z</time></trkpt><trkpt lat="45.92443990804394" lon="11.55582234540219"><ele>1508.0</ele><time>2026-04-21T09:31:38.986Z</time></trkpt><trkpt lat="45.92453356405546" lon="11.555761963134357"><ele>1508.0</ele><time>2026-04-21T09:32:28.985Z</time></trkpt><trkpt lat="45.92459522381085" lon="11.555860061658459"><ele>1508.0</ele><time>2026-04-21T09:33:42.985Z</time></trkpt><trkpt lat="45.92458681527023" lon="11.555729233364838"><ele>1508.0</ele><time>2026-04-21T09:36:02.984Z</time></trkpt><trkpt lat="45.92450667690242" lon="11.555763912919565"><ele>1508.0</ele><time>2026-04-21T09:36:17.984Z</time></trkpt><trkpt lat="45.92453745452674" lon="11.555674407690809"><ele>1508.0</ele><time>2026-04-21T09:36:37.984Z</time></trkpt><trkpt lat="45.92463005816166" lon="11.555704764795017"><ele>1508.0</ele><time>2026-04-21T09:37:21.983Z</time></trkpt><trkpt lat="45.924549687727826" lon="11.555751254565033"><ele>1508.0</ele><time>2026-04-21T09:38:32.983Z</time></trkpt><trkpt lat="45.92449751700248" lon="11.555802106490964"><ele>1508.0</ele><time>2026-04-21T09:38:35.982Z</time></trkpt><trkpt lat="45.9244266847178" lon="11.555764932289126"><ele>1508.0</ele><time>2026-04-21T09:38:44.982Z</time></trkpt><trkpt lat="45.92451630983245" lon="11.555736926356941"><ele>1508.0</ele><time>2026-04-21T09:38:57.982Z</time></trkpt><trkpt lat="45.924609373737994" lon="11.555686921179543"><ele>1508.0</ele><time>2026-04-21T09:39:49.982Z</time></trkpt><trkpt lat="45.92447346193455" lon="11.555689923176985"><ele>1508.0</ele><time>2026-04-21T09:41:12.982Z</time></trkpt><trkpt lat="45.92454542599536" lon="11.555761126522432"><ele>1508.0</ele><time>2026-04-21T09:41:44.981Z</time></trkpt><trkpt lat="45.92460933168413" lon="11.555756369885588"><ele>1508.0</ele><time>2026-04-21T09:42:26.982Z</time></trkpt><trkpt lat="45.92454817431262" lon="11.555706521788633"><ele>1508.0</ele><time>2026-04-21T09:42:54.982Z</time></trkpt><trkpt lat="45.92460912760802" lon="11.555620877040885"><ele>1508.0</ele><time>2026-04-21T09:45:03.981Z</time></trkpt><trkpt lat="45.924529128928555" lon="11.55559834738822"><ele>1508.0</ele><time>2026-04-21T09:45:19.981Z</time></trkpt><trkpt lat="45.92445710905755" lon="11.555617118376974"><ele>1507.9999999999998</ele><time>2026-04-21T09:45:26.981Z</time></trkpt><trkpt lat="45.924466084926316" lon="11.555513646414045"><ele>1508.0</ele><time>2026-04-21T09:46:57.981Z</time></trkpt><trkpt lat="45.92446719662459" lon="11.55541811927295"><ele>1508.0</ele><time>2026-04-21T09:48:12.98Z</time></trkpt><trkpt lat="45.924446603153406" lon="11.555331130454732"><ele>1508.0</ele><time>2026-04-21T09:49:39.981Z</time></trkpt><trkpt lat="45.92439081143068" lon="11.555283680936876"><ele>1508.0</ele><time>2026-04-21T09:50:07.981Z</time></trkpt><trkpt lat="45.924413057300185" lon="11.555386444211244"><ele>1507.9999999999998</ele><time>2026-04-21T09:50:42.981Z</time></trkpt><trkpt lat="45.92449689583505" lon="11.555435895227431"><ele>1508.0</ele><time>2026-04-21T09:51:10.981Z</time></trkpt><trkpt lat="45.92447269247874" lon="11.555343118219197"><ele>1507.8571428571427</ele><time>2026-04-21T09:51:26.981Z</time></trkpt><trkpt lat="45.9244517616142" lon="11.55524412692179"><ele>1507.7142857142858</ele><time>2026-04-21T09:51:50.98Z</time></trkpt><trkpt lat="45.92444662295734" lon="11.555130949059773"><ele>1507.5714285714284</ele><time>2026-04-21T09:52:08.98Z</time></trkpt><trkpt lat="45.924418515655816" lon="11.555042630770663"><ele>1507.4285714285713</ele><time>2026-04-21T09:52:24.98Z</time></trkpt><trkpt lat="45.92441453212003" lon="11.554945321939645"><ele>1507.2857142857142</ele><time>2026-04-21T09:52:33.98Z</time></trkpt><trkpt lat="45.92436610127198" lon="11.554860528199377"><ele>1507.142857142857</ele><time>2026-04-21T09:52:43.981Z</time></trkpt><trkpt lat="45.924322271533974" lon="11.554775145472616"><ele>1507.0</ele><time>2026-04-21T09:53:30.98Z</time></trkpt><trkpt lat="45.92428726472598" lon="11.55469927282739"><ele>1507.0</ele><time>2026-04-21T09:54:08.979Z</time></trkpt><trkpt lat="45.92425020406883" lon="11.554623889023627"><ele>1507.0</ele><time>2026-04-21T09:54:42.985Z</time></trkpt><trkpt lat="45.924206563569506" lon="11.554553571754477"><ele>1507.0</ele><time>2026-04-21T09:54:51.992Z</time></trkpt><trkpt lat="45.92414530078657" lon="11.554581921684631"><ele>1507.0</ele><time>2026-04-21T09:55:42Z</time></trkpt><trkpt lat="45.924117873530946" lon="11.554496057915403"><ele>1507.0</ele><time>2026-04-21T09:56:03Z</time></trkpt><trkpt lat="45.92404502642993" lon="11.554483670585297"><ele>1507.0</ele><time>2026-04-21T09:56:14Z</time></trkpt><trkpt lat="45.92407833511091" lon="11.554405329360646"><ele>1507.0</ele><time>2026-04-21T09:56:50Z</time></trkpt><trkpt lat="45.924038277353574" lon="11.554483142066946"><ele>1510.7142857142858</ele><time>2026-04-21T09:57:37Z</time></trkpt><trkpt lat="45.924014336800695" lon="11.55439607829113"><ele>1514.4285714285713</ele><time>2026-04-21T09:57:57.999Z</time></trkpt><trkpt lat="45.924025388426024" lon="11.55430336519875"><ele>1518.142857142857</ele><time>2026-04-21T09:58:07.999Z</time></trkpt><trkpt lat="45.92410331531482" lon="11.554262552956999"><ele>1521.857142857143</ele><time>2026-04-21T09:58:47.999Z</time></trkpt><trkpt lat="45.92403510564334" lon="11.554338852988852"><ele>1525.5714285714284</ele><time>2026-04-21T09:59:21Z</time></trkpt><trkpt lat="45.92411118631" lon="11.554297229521765"><ele>1529.2857142857142</ele><time>2026-04-21T10:00:42.999Z</time></trkpt><trkpt lat="45.92409877246116" lon="11.554201278145241"><ele>1533.0</ele><time>2026-04-21T10:01:08Z</time></trkpt><trkpt lat="45.924043090734266" lon="11.554138785919044"><ele>1533.0</ele><time>2026-04-21T10:01:21.999Z</time></trkpt><trkpt lat="45.92409224343586" lon="11.554072296991942"><ele>1533.0</ele><time>2026-04-21T10:02:02.999Z</time></trkpt><trkpt lat="45.924079437240316" lon="11.553960038880358"><ele>1533.0</ele><time>2026-04-21T10:02:20.999Z</time></trkpt><trkpt lat="45.924077534360755" lon="11.553847362646183"><ele>1533.0</ele><time>2026-04-21T10:03:05Z</time></trkpt><trkpt lat="45.92411125875845" lon="11.55376860021261"><ele>1533.0</ele><time>2026-04-21T10:03:17Z</time></trkpt><trkpt lat="45.92411787755878" lon="11.553668086371994"><ele>1533.0</ele><time>2026-04-21T10:03:26.999Z</time></trkpt><trkpt lat="45.92408030971099" lon="11.553581816535056"><ele>1533.0</ele><time>2026-04-21T10:03:43.999Z</time></trkpt><trkpt lat="45.92402028299603" lon="11.553535126893347"><ele>1532.2857142857142</ele><time>2026-04-21T10:03:59.999Z</time></trkpt><trkpt lat="45.92397323475443" lon="11.553460355185898"><ele>1531.5714285714284</ele><time>2026-04-21T10:04:07.999Z</time></trkpt><trkpt lat="45.92402982899011" lon="11.553419126357099"><ele>1530.857142857143</ele><time>2026-04-21T10:05:08Z</time></trkpt><trkpt lat="45.924086704178706" lon="11.553341312873943"><ele>1530.142857142857</ele><time>2026-04-21T10:05:15.999Z</time></trkpt><trkpt lat="45.924172300970376" lon="11.553333414306453"><ele>1529.4285714285713</ele><time>2026-04-21T10:06:07.999Z</time></trkpt><trkpt lat="45.92422759376251" lon="11.553265818932333"><ele>1528.7142857142858</ele><time>2026-04-21T10:06:51.999Z</time></trkpt><trkpt lat="45.92427194871375" lon="11.553197235484024"><ele>1528.0</ele><time>2026-04-21T10:07:09.999Z</time></trkpt><trkpt lat="45.924262117177875" lon="11.553080973031662"><ele>1528.0</ele><time>2026-04-21T10:07:26.998Z</time></trkpt><trkpt lat="45.92424991252121" lon="11.552986290782984"><ele>1528.0</ele><time>2026-04-21T10:07:36.998Z</time></trkpt><trkpt lat="45.9242169420218" lon="11.552874570483075"><ele>1528.0</ele><time>2026-04-21T10:08:05.998Z</time></trkpt><trkpt lat="45.92417671545367" lon="11.552756539746138"><ele>1528.0</ele><time>2026-04-21T10:08:40.998Z</time></trkpt><trkpt lat="45.9241504233346" lon="11.552640917048725"><ele>1528.0</ele><time>2026-04-21T10:08:59.997Z</time></trkpt><trkpt lat="45.92421397951247" lon="11.552572465663676"><ele>1528.0</ele><time>2026-04-21T10:09:18.997Z</time></trkpt><trkpt lat="45.92420252695271" lon="11.552430455461556"><ele>1528.2857142857144</ele><time>2026-04-21T10:09:44.997Z</time></trkpt><trkpt lat="45.92415944582942" lon="11.55236307016107"><ele>1528.5714285714284</ele><time>2026-04-21T10:11:04.996Z</time></trkpt><trkpt lat="45.924089364891586" lon="11.552345909138175"><ele>1528.857142857143</ele><time>2026-04-21T10:15:55.993Z</time></trkpt><trkpt lat="45.92402353221635" lon="11.552308194773401"><ele>1529.1428571428573</ele><time>2026-04-21T10:19:04.991Z</time></trkpt><trkpt lat="45.92400282758844" lon="11.552220346760567"><ele>1529.4285714285716</ele><time>2026-04-21T10:19:46.991Z</time></trkpt><trkpt lat="45.92404084023866" lon="11.552306801171321"><ele>1529.7142857142858</ele><time>2026-04-21T10:20:07.99Z</time></trkpt><trkpt lat="45.92408272018968" lon="11.55222862477477"><ele>1530.0</ele><time>2026-04-21T10:20:53.99Z</time></trkpt><trkpt lat="45.92411372430988" lon="11.552140894432346"><ele>1530.4</ele><time>2026-04-21T10:21:03.99Z</time></trkpt><trkpt lat="45.92405594748918" lon="11.552021693392096"><ele>1530.8</ele><time>2026-04-21T10:21:16.99Z</time></trkpt><trkpt lat="45.92397044386794" lon="11.551900107205705"><ele>1531.1999999999998</ele><time>2026-04-21T10:21:35.99Z</time></trkpt><trkpt lat="45.92388309378578" lon="11.551850496708292"><ele>1531.6</ele><time>2026-04-21T10:22:03.989Z</time></trkpt><trkpt lat="45.92392476167119" lon="11.55193203331727"><ele>1532.0</ele><time>2026-04-21T10:22:24.989Z</time></trkpt><trkpt lat="45.92398004078498" lon="11.552006004188648"><ele>1531.7142857142858</ele><time>2026-04-21T10:22:31.989Z</time></trkpt><trkpt lat="45.923993552186865" lon="11.552095235965615"><ele>1531.4285714285713</ele><time>2026-04-21T10:23:14.989Z</time></trkpt><trkpt lat="45.92400882983324" lon="11.552189824282447"><ele>1531.1428571428573</ele><time>2026-04-21T10:23:25.988Z</time></trkpt><trkpt lat="45.92402979835158" lon="11.55227541027973"><ele>1530.857142857143</ele><time>2026-04-21T10:23:29.988Z</time></trkpt><trkpt lat="45.92398872971287" lon="11.55238850984634"><ele>1530.5714285714287</ele><time>2026-04-21T10:24:09.988Z</time></trkpt><trkpt lat="45.923937998337756" lon="11.552451881049615"><ele>1530.2857142857144</ele><time>2026-04-21T10:25:10.987Z</time></trkpt><trkpt lat="45.92395344716781" lon="11.552361189707483"><ele>1530.0</ele><time>2026-04-21T10:25:22.998Z</time></trkpt><trkpt lat="45.92397484804475" lon="11.552274690731256"><ele>1530.0000000000002</ele><time>2026-04-21T10:25:31.998Z</time></trkpt><trkpt lat="45.924054186600095" lon="11.552295473225213"><ele>1530.0</ele><time>2026-04-21T10:26:19.998Z</time></trkpt><trkpt lat="45.924116797210786" lon="11.552306457651735"><ele>1530.0</ele><time>2026-04-21T10:26:30.998Z</time></trkpt><trkpt lat="45.924167369013766" lon="11.552240105140378"><ele>1530.0</ele><time>2026-04-21T10:26:38.998Z</time></trkpt><trkpt lat="45.92420792919065" lon="11.55216855102472"><ele>1530.0</ele><time>2026-04-21T10:27:14.998Z</time></trkpt><trkpt lat="45.92425967838505" lon="11.55222815385241"><ele>1530.0000000000002</ele><time>2026-04-21T10:27:36.998Z</time></trkpt><trkpt lat="45.92422342696383" lon="11.552306429240259"><ele>1530.0</ele><time>2026-04-21T10:27:55.997Z</time></trkpt><trkpt lat="45.924244205987996" lon="11.552393982886947"><ele>1530.0000000000002</ele><time>2026-04-21T10:28:13.999Z</time></trkpt><trkpt lat="45.92426777371912" lon="11.55247793084411"><ele>1530.0</ele><time>2026-04-21T10:28:24.999Z</time></trkpt><trkpt lat="45.9242361262208" lon="11.552559833812758"><ele>1530.0</ele><time>2026-04-21T10:28:47.998Z</time></trkpt><trkpt lat="45.924182864533606" lon="11.552651784330484"><ele>1530.0</ele><time>2026-04-21T10:29:07.998Z</time></trkpt><trkpt lat="45.924184338151775" lon="11.552789837024708"><ele>1530.0</ele><time>2026-04-21T10:29:31.998Z</time></trkpt><trkpt lat="45.924209862621886" lon="11.552873214445349"><ele>1530.0000000000002</ele><time>2026-04-21T10:29:41.997Z</time></trkpt><trkpt lat="45.92416126441646" lon="11.552950791976789"><ele>1530.0</ele><time>2026-04-21T10:29:52.997Z</time></trkpt><trkpt lat="45.924210532397524" lon="11.553011033613673"><ele>1529.7142857142858</ele><time>2026-04-21T10:30:53.998Z</time></trkpt><trkpt lat="45.92425651126212" lon="11.553088436146126"><ele>1529.4285714285716</ele><time>2026-04-21T10:31:04.998Z</time></trkpt><trkpt lat="45.92426086250163" lon="11.553179085919998"><ele>1529.1428571428573</ele><time>2026-04-21T10:31:37.998Z</time></trkpt><trkpt lat="45.924223547594366" lon="11.553332628838033"><ele>1528.857142857143</ele><time>2026-04-21T10:32:24.997Z</time></trkpt><trkpt lat="45.92420941605781" lon="11.553424504754783"><ele>1528.5714285714284</ele><time>2026-04-21T10:32:33.998Z</time></trkpt><trkpt lat="45.924249686385835" lon="11.553494880041868"><ele>1528.2857142857144</ele><time>2026-04-21T10:32:42.999Z</time></trkpt><trkpt lat="45.924286762965146" lon="11.553571846641283"><ele>1528.0</ele><time>2026-04-21T10:33:02.999Z</time></trkpt><trkpt lat="45.924265255558126" lon="11.553658596650743"><ele>1528.7142857142858</ele><time>2026-04-21T10:33:13.999Z</time></trkpt><trkpt lat="45.924220639365245" lon="11.553732991155817"><ele>1529.4285714285713</ele><time>2026-04-21T10:33:23.999Z</time></trkpt><trkpt lat="45.92415143367794" lon="11.553777287452457"><ele>1530.142857142857</ele><time>2026-04-21T10:34:48.998Z</time></trkpt><trkpt lat="45.92408759905932" lon="11.553778874074943"><ele>1530.857142857143</ele><time>2026-04-21T10:35:14.998Z</time></trkpt><trkpt lat="45.92408262628006" lon="11.553874821730036"><ele>1531.5714285714284</ele><time>2026-04-21T10:35:26.998Z</time></trkpt><trkpt lat="45.92406260467275" lon="11.553979309732405"><ele>1532.2857142857142</ele><time>2026-04-21T10:35:48.998Z</time></trkpt><trkpt lat="45.92398438393035" lon="11.554041143578322"><ele>1533.0</ele><time>2026-04-21T10:36:33.997Z</time></trkpt><trkpt lat="45.923952288985646" lon="11.554152831990562"><ele>1533.0</ele><time>2026-04-21T10:36:45.998Z</time></trkpt><trkpt lat="45.92394025771535" lon="11.554344282627273"><ele>1533.0</ele><time>2026-04-21T10:37:13.998Z</time></trkpt><trkpt lat="45.92396413502053" lon="11.554446411366527"><ele>1533.0</ele><time>2026-04-21T10:37:28.998Z</time></trkpt><trkpt lat="45.92400188969864" lon="11.55453260788377"><ele>1533.0</ele><time>2026-04-21T10:37:39.998Z</time></trkpt><trkpt lat="45.92403173548096" lon="11.554618529714277"><ele>1533.0</ele><time>2026-04-21T10:37:47.998Z</time></trkpt><trkpt lat="45.92407975837955" lon="11.55468414346253"><ele>1533.0</ele><time>2026-04-21T10:38:01.998Z</time></trkpt><trkpt lat="45.92411438852835" lon="11.55476564535431"><ele>1534.2857142857142</ele><time>2026-04-21T10:38:12.997Z</time></trkpt><trkpt lat="45.92413965739833" lon="11.554858632685255"><ele>1535.5714285714284</ele><time>2026-04-21T10:38:39.997Z</time></trkpt><trkpt lat="45.924175278020854" lon="11.554934445153716"><ele>1536.857142857143</ele><time>2026-04-21T10:38:58.999Z</time></trkpt><trkpt lat="45.92418401914406" lon="11.555029488366358"><ele>1538.142857142857</ele><time>2026-04-21T10:39:09.999Z</time></trkpt><trkpt lat="45.92419178463251" lon="11.555138464328707"><ele>1539.4285714285713</ele><time>2026-04-21T10:39:24.999Z</time></trkpt><trkpt lat="45.92420272111118" lon="11.555229512162425"><ele>1540.7142857142858</ele><time>2026-04-21T10:39:36.999Z</time></trkpt><trkpt lat="45.92429141351708" lon="11.555187067828593"><ele>1542.0</ele><time>2026-04-21T10:40:04.998Z</time></trkpt><trkpt lat="45.924271916601924" lon="11.55531614948794"><ele>1537.142857142857</ele><time>2026-04-21T10:40:30.998Z</time></trkpt><trkpt lat="45.92424883034698" lon="11.555401626585187"><ele>1532.2857142857142</ele><time>2026-04-21T10:40:39.998Z</time></trkpt><trkpt lat="45.92424464748631" lon="11.555504130188275"><ele>1527.4285714285713</ele><time>2026-04-21T10:41:21.998Z</time></trkpt><trkpt lat="45.92425571003489" lon="11.555595458556818"><ele>1522.5714285714284</ele><time>2026-04-21T10:41:35.998Z</time></trkpt><trkpt lat="45.9242834313836" lon="11.5556876818219"><ele>1517.7142857142858</ele><time>2026-04-21T10:42:11.998Z</time></trkpt><trkpt lat="45.9242641114481" lon="11.555789925842681"><ele>1512.8571428571427</ele><time>2026-04-21T10:42:36.998Z</time></trkpt><trkpt lat="45.92426599362028" lon="11.555882982085336"><ele>1508.0</ele><time>2026-04-21T10:42:50.998Z</time></trkpt><trkpt lat="45.92429481344974" lon="11.555967803727594"><ele>1508.0</ele><time>2026-04-21T10:43:05.999Z</time></trkpt><trkpt lat="45.924304592298135" lon="11.556063141177098"><ele>1508.0</ele><time>2026-04-21T10:43:44.998Z</time></trkpt><trkpt lat="45.92430353053696" lon="11.556154593514549"><ele>1508.0</ele><time>2026-04-21T10:44:55.997Z</time></trkpt><trkpt lat="45.92429130595225" lon="11.556245772776823"><ele>1508.0</ele><time>2026-04-21T10:45:07.999Z</time></trkpt><trkpt lat="45.92425772131861" lon="11.556325316178018"><ele>1508.0</ele><time>2026-04-21T10:45:19.998Z</time></trkpt><trkpt lat="45.924265191577405" lon="11.55649741660285"><ele>1508.0</ele><time>2026-04-21T10:46:42.997Z</time></trkpt><trkpt lat="45.92428731367262" lon="11.556402001080754"><ele>1507.8571428571427</ele><time>2026-04-21T10:47:20.998Z</time></trkpt><trkpt lat="45.924336526674075" lon="11.556330427324141"><ele>1507.7142857142858</ele><time>2026-04-21T10:48:08.998Z</time></trkpt><trkpt lat="45.92440274701381" lon="11.556366097236241"><ele>1507.5714285714284</ele><time>2026-04-21T10:49:03.997Z</time></trkpt><trkpt lat="45.92440760639384" lon="11.556468954216767"><ele>1507.4285714285713</ele><time>2026-04-21T10:49:28.998Z</time></trkpt><trkpt lat="45.924457155281715" lon="11.556540359228828"><ele>1507.2857142857142</ele><time>2026-04-21T10:49:35.998Z</time></trkpt><trkpt lat="45.9244736829184" lon="11.556634273443136"><ele>1507.142857142857</ele><time>2026-04-21T10:49:55.998Z</time></trkpt><trkpt lat="45.92442640106575" lon="11.556703018701388"><ele>1507.0</ele><time>2026-04-21T10:50:06.998Z</time></trkpt><trkpt lat="45.92439237637582" lon="11.556783416527"><ele>1507.0</ele><time>2026-04-21T10:50:15.998Z</time></trkpt><trkpt lat="45.92438597499987" lon="11.556892608638277"><ele>1507.0</ele><time>2026-04-21T10:50:25.997Z</time></trkpt><trkpt lat="45.92437254823117" lon="11.55701301060585"><ele>1507.0</ele><time>2026-04-21T10:50:39.997Z</time></trkpt><trkpt lat="45.924348208397035" lon="11.557100687499881"><ele>1507.0</ele><time>2026-04-21T10:50:48.997Z</time></trkpt><trkpt lat="45.924372688097684" lon="11.557197621461716"><ele>1507.0</ele><time>2026-04-21T10:51:00.997Z</time></trkpt><trkpt lat="45.924397756847554" lon="11.557295167354782"><ele>1507.0</ele><time>2026-04-21T10:51:12.997Z</time></trkpt><trkpt lat="45.92440677379104" lon="11.55738892675984"><ele>1507.0</ele><time>2026-04-21T10:51:30.999Z</time></trkpt><trkpt lat="45.92446484103249" lon="11.557430363482343"><ele>1505.857142857143</ele><time>2026-04-21T10:51:38.998Z</time></trkpt><trkpt lat="45.92449537849479" lon="11.557512896985623"><ele>1504.7142857142856</ele><time>2026-04-21T10:51:47.998Z</time></trkpt><trkpt lat="45.92453289011574" lon="11.557596290752608"><ele>1503.5714285714284</ele><time>2026-04-21T10:51:59.998Z</time></trkpt><trkpt lat="45.924599790397195" lon="11.557604380681564"><ele>1502.4285714285716</ele><time>2026-04-21T10:52:10.998Z</time></trkpt><trkpt lat="45.924662478640116" lon="11.557658361043893"><ele>1501.2857142857142</ele><time>2026-04-21T10:52:23.998Z</time></trkpt><trkpt lat="45.924730478864745" lon="11.557671344585373"><ele>1500.142857142857</ele><time>2026-04-21T10:52:29.998Z</time></trkpt><trkpt lat="45.92479015247057" lon="11.557700753655926"><ele>1499.0</ele><time>2026-04-21T10:52:34.998Z</time></trkpt><trkpt lat="45.92485868353269" lon="11.557680285043068"><ele>1499.0</ele><time>2026-04-21T10:52:42.997Z</time></trkpt><trkpt lat="45.92492530245932" lon="11.55772479597592"><ele>1499.0</ele><time>2026-04-21T10:52:48.997Z</time></trkpt><trkpt lat="45.92497943818689" lon="11.557775528169833"><ele>1499.0</ele><time>2026-04-21T10:52:54.997Z</time></trkpt><trkpt lat="45.92499220388164" lon="11.55786655007635"><ele>1499.0</ele><time>2026-04-21T10:52:59.997Z</time></trkpt><trkpt lat="45.92497208217863" lon="11.55797321972091"><ele>1499.0</ele><time>2026-04-21T10:53:04.997Z</time></trkpt><trkpt lat="45.9249829347519" lon="11.558069813618"><ele>1499.0</ele><time>2026-04-21T10:53:09.997Z</time></trkpt><trkpt lat="45.92499050980586" lon="11.558177289132969"><ele>1499.0</ele><time>2026-04-21T10:53:15.997Z</time></trkpt><trkpt lat="45.92497833320819" lon="11.558276823932937"><ele>1497.4285714285716</ele><time>2026-04-21T10:53:21.997Z</time></trkpt><trkpt lat="45.92496250123024" lon="11.558373373148736"><ele>1495.857142857143</ele><time>2026-04-21T10:53:26.999Z</time></trkpt><trkpt lat="45.92495223192575" lon="11.55846286432592"><ele>1494.2857142857142</ele><time>2026-04-21T10:53:31.998Z</time></trkpt><trkpt lat="45.92492943576663" lon="11.558557907247984"><ele>1492.7142857142858</ele><time>2026-04-21T10:53:36.999Z</time></trkpt><trkpt lat="45.92489727611964" lon="11.558658710483233"><ele>1491.142857142857</ele><time>2026-04-21T10:53:41.999Z</time></trkpt><trkpt lat="45.924885360772016" lon="11.558757231483762"><ele>1489.5714285714287</ele><time>2026-04-21T10:53:46.999Z</time></trkpt><trkpt lat="45.92485365873896" lon="11.55883969996141"><ele>1488.0</ele><time>2026-04-21T10:53:51.999Z</time></trkpt><trkpt lat="45.924826922378415" lon="11.55893535311678"><ele>1486.2857142857144</ele><time>2026-04-21T10:53:56.998Z</time></trkpt><trkpt lat="45.92480442264444" lon="11.559026535764342"><ele>1484.5714285714287</ele><time>2026-04-21T10:54:00.998Z</time></trkpt><trkpt lat="45.92478678876027" lon="11.559124432971188"><ele>1482.857142857143</ele><time>2026-04-21T10:54:05.998Z</time></trkpt><trkpt lat="45.92475246094478" lon="11.559214043120626"><ele>1481.1428571428573</ele><time>2026-04-21T10:54:10.998Z</time></trkpt><trkpt lat="45.92469607361311" lon="11.559281772379737"><ele>1479.4285714285713</ele><time>2026-04-21T10:54:15.998Z</time></trkpt><trkpt lat="45.92463657700313" lon="11.559352282288435"><ele>1477.7142857142858</ele><time>2026-04-21T10:54:20.998Z</time></trkpt><trkpt lat="45.9246064240033" lon="11.559471332282161"><ele>1476.0</ele><time>2026-04-21T10:54:26.998Z</time></trkpt><trkpt lat="45.92457051741553" lon="11.559547282050012"><ele>1463.0</ele><time>2026-04-21T10:54:30.998Z</time></trkpt><trkpt lat="45.92457051741553" lon="11.559547282050012"><ele>1463.0</ele><time>2026-04-21T10:54:30.998Z</time></trkpt></trkseg></trk></gpx>